createdAt,value
2018-06-22T00:01:53.605Z,2.10
2018-06-22T00:04:21.945Z,2.20
2018-06-22T00:06:50.259Z,2.30
2018-06-22T00:09:18.533Z,1.93
2018-06-22T00:11:46.791Z,1.67
2018-06-22T00:14:15.175Z,1.57
2018-06-22T00:16:43.477Z,1.77
2018-06-22T00:19:11.569Z,2.20
2018-06-22T00:21:39.676Z,2.73
2018-06-22T00:24:08.012Z,1.90
2018-06-22T00:26:36.368Z,2.07
2018-06-22T00:29:04.724Z,2.83
2018-06-22T00:31:33.088Z,2.10
2018-06-22T00:34:01.472Z,1.87
2018-06-22T00:36:29.827Z,1.73
2018-06-22T00:38:58.525Z,1.73
2018-06-22T00:41:26.877Z,2.13
2018-06-22T00:43:55.140Z,2.33
2018-06-22T00:46:23.469Z,2.03
2018-06-22T00:48:51.750Z,1.67
2018-06-22T00:51:20.231Z,1.70
2018-06-22T00:54:01.947Z,1.83
2018-06-22T00:56:30.347Z,1.70
2018-06-22T00:58:58.782Z,1.67
2018-06-22T01:01:27.106Z,2.10
2018-06-22T01:03:55.467Z,2.00
2018-06-22T01:06:23.765Z,2.05
2018-06-22T01:08:52.055Z,1.83
2018-06-22T01:11:20.770Z,1.83
2018-06-22T01:13:49.110Z,1.67
2018-06-22T01:16:18.443Z,1.67
2018-06-22T01:18:46.953Z,1.67
2018-06-22T01:21:15.440Z,1.70
2018-06-22T01:23:43.736Z,1.98
2018-06-22T01:26:12.079Z,2.00
2018-06-22T01:28:40.417Z,1.53
2018-06-22T01:31:08.750Z,1.83
2018-06-22T01:33:37.955Z,1.90
2018-06-22T01:36:06.250Z,2.10
2018-06-22T01:38:34.587Z,1.80
2018-06-22T01:41:02.861Z,1.57
2018-06-22T01:43:31.212Z,2.40
2018-06-22T01:45:59.481Z,1.90
2018-06-22T01:48:27.867Z,1.87
2018-06-22T01:50:56.188Z,1.80
2018-06-22T01:53:24.482Z,1.73
2018-06-22T01:55:52.843Z,1.70
2018-06-22T01:58:21.176Z,1.63
2018-06-22T02:00:49.505Z,2.13
2018-06-22T02:03:17.723Z,1.90
2018-06-22T02:05:46.050Z,1.80
2018-06-22T02:08:14.366Z,1.73
2018-06-22T02:10:42.643Z,1.57
2018-06-22T02:13:10.680Z,1.67
2018-06-22T02:15:39.309Z,1.80
2018-06-22T02:18:07.640Z,1.90
2018-06-22T02:20:35.911Z,2.17
2018-06-22T02:23:04.178Z,1.60
2018-06-22T02:25:32.480Z,1.80
2018-06-22T02:28:00.859Z,1.98
2018-06-22T02:30:29.188Z,2.13
2018-06-22T02:32:57.462Z,1.80
2018-06-22T02:35:25.819Z,1.70
2018-06-22T02:37:54.323Z,2.10
2018-06-22T02:40:22.808Z,1.90
2018-06-22T02:42:51.165Z,1.87
2018-06-22T02:45:19.547Z,1.63
2018-06-22T02:47:47.798Z,2.20
2018-06-22T02:50:16.110Z,2.00
2018-06-22T02:52:44.465Z,1.80
2018-06-22T02:55:12.596Z,1.70
2018-06-22T02:57:40.910Z,1.90
2018-06-22T03:00:09.800Z,1.90
2018-06-22T03:02:38.131Z,2.13
2018-06-22T03:05:06.489Z,1.73
2018-06-22T03:07:34.971Z,1.70
2018-06-22T03:10:03.777Z,1.70
2018-06-22T03:12:32.162Z,1.90
2018-06-22T03:15:00.513Z,1.50
2018-06-22T03:17:28.902Z,1.80
2018-06-22T03:19:57.294Z,1.90
2018-06-22T03:22:25.610Z,2.00
2018-06-22T03:24:54.097Z,1.90
2018-06-22T03:27:22.384Z,1.80
2018-06-22T03:29:50.749Z,2.00
2018-06-22T03:32:19.009Z,1.97
2018-06-22T03:34:47.407Z,2.23
2018-06-22T03:37:15.697Z,1.60
2018-06-22T03:39:44.140Z,2.10
2018-06-22T03:42:12.519Z,1.63
2018-06-22T03:44:40.812Z,2.20
2018-06-22T03:47:09.141Z,1.87
2018-06-22T03:49:37.475Z,1.70
2018-06-22T03:52:05.674Z,2.20
2018-06-22T03:54:34.700Z,2.10
2018-06-22T03:57:02.985Z,2.27
2018-06-22T03:59:31.339Z,2.10
2018-06-22T04:01:59.619Z,1.80
2018-06-22T04:04:27.975Z,2.03
2018-06-22T04:06:56.234Z,1.98
2018-06-22T04:09:24.597Z,2.00
2018-06-22T04:11:52.964Z,2.00
2018-06-22T04:14:21.546Z,2.23
2018-06-22T04:16:49.876Z,2.00
2018-06-22T04:19:18.172Z,2.13
2018-06-22T04:21:46.526Z,2.30
2018-06-22T04:24:16.665Z,1.90
2018-06-22T04:26:45.378Z,2.20
2018-06-22T04:29:14.762Z,2.20
2018-06-22T04:31:42.984Z,2.23
2018-06-22T04:34:11.325Z,2.07
2018-06-22T04:36:39.931Z,2.23
2018-06-22T04:39:09.834Z,2.10
2018-06-22T04:41:38.473Z,2.27
2018-06-22T04:44:06.808Z,2.00
2018-06-22T04:46:35.152Z,2.30
2018-06-22T04:49:03.492Z,2.13
2018-06-22T04:51:31.932Z,2.00
2018-06-22T04:54:00.644Z,2.60
2018-06-22T04:56:29.148Z,2.27
2018-06-22T04:58:57.640Z,2.10
2018-06-22T05:01:25.948Z,2.10
2018-06-22T05:03:54.242Z,2.40
2018-06-22T05:06:22.591Z,2.23
2018-06-22T05:08:50.893Z,2.47
2018-06-22T05:11:19.143Z,2.10
2018-06-22T05:13:48.654Z,1.87
2018-06-22T05:16:17.029Z,1.80
2018-06-22T05:18:45.308Z,1.93
2018-06-22T05:21:13.647Z,1.77
2018-06-22T05:23:41.944Z,2.10
2018-06-22T05:26:10.173Z,2.40
2018-06-22T05:28:38.478Z,1.90
2018-06-22T05:31:06.869Z,2.00
2018-06-22T05:33:35.155Z,1.92
2018-06-22T05:36:03.484Z,1.90
2018-06-22T05:38:31.781Z,2.00
2018-06-22T05:41:00.073Z,2.00
2018-06-22T05:43:28.356Z,1.70
2018-06-22T05:45:56.702Z,2.20
2018-06-22T05:48:24.994Z,2.03
2018-06-22T05:50:53.371Z,2.20
2018-06-22T05:53:26.559Z,1.80
2018-06-22T05:55:54.619Z,1.80
2018-06-22T05:58:22.995Z,1.83
2018-06-22T06:00:52.256Z,2.43
2018-06-22T06:03:20.623Z,1.80
2018-06-22T06:05:48.936Z,2.10
2018-06-22T06:08:17.293Z,1.77
2018-06-22T06:10:45.583Z,2.07
2018-06-22T06:13:14.029Z,1.93
2018-06-22T06:15:42.754Z,2.20
2018-06-22T06:18:11.073Z,1.70
2018-06-22T06:20:39.369Z,1.80
2018-06-22T06:23:07.712Z,1.60
2018-06-22T06:25:36.005Z,1.80
2018-06-22T06:28:04.313Z,1.50
2018-06-22T06:30:32.697Z,2.03
2018-06-22T06:33:01.016Z,1.67
2018-06-22T06:35:29.330Z,2.00
2018-06-22T06:37:57.652Z,1.90
2018-06-22T06:40:25.934Z,1.93
2018-06-22T06:42:54.225Z,1.77
2018-06-22T06:45:22.491Z,1.90
2018-06-22T06:47:50.794Z,1.57
2018-06-22T06:50:18.832Z,1.40
2018-06-22T06:52:47.103Z,1.50
2018-06-22T06:55:15.473Z,1.30
2018-06-22T06:57:43.800Z,1.50
2018-06-22T07:02:46.355Z,1.30
2018-06-22T07:05:14.636Z,1.10
2018-06-22T07:07:42.895Z,1.60
2018-06-22T07:10:11.261Z,1.30
2018-06-22T07:12:39.593Z,1.43
2018-06-22T07:15:07.994Z,1.17
2018-06-22T07:17:36.447Z,1.20
2018-06-22T07:20:05.128Z,1.70
2018-06-22T07:22:33.404Z,1.60
2018-06-22T07:25:01.646Z,1.30
2018-06-22T07:27:30.170Z,1.50
2018-06-22T07:29:58.605Z,1.40
2018-06-22T07:32:26.922Z,1.23
2018-06-22T07:34:55.281Z,1.60
2018-06-22T07:37:23.573Z,1.90
2018-06-22T07:39:51.849Z,1.40
2018-06-22T07:42:20.117Z,1.60
2018-06-22T07:44:48.443Z,1.20
2018-06-22T07:47:16.594Z,1.40
2018-06-22T07:49:45.064Z,1.90
2018-06-22T07:52:13.275Z,1.10
2018-06-22T07:54:41.778Z,1.47
2018-06-22T07:57:10.200Z,1.47
2018-06-22T07:59:38.441Z,1.20
2018-06-22T08:02:06.792Z,1.20
2018-06-22T08:04:35.106Z,1.23
2018-06-22T08:07:03.486Z,1.50
2018-06-22T08:09:31.861Z,1.30
2018-06-22T08:12:00.330Z,1.10
2018-06-22T08:14:28.611Z,1.53
2018-06-22T08:16:57.069Z,1.80
2018-06-22T08:19:25.380Z,1.47
2018-06-22T08:21:53.614Z,1.20
2018-06-22T08:24:21.922Z,1.20
2018-06-22T08:26:50.248Z,1.10
2018-06-22T08:29:18.583Z,1.30
2018-06-22T08:31:46.862Z,1.30
2018-06-22T08:34:15.151Z,1.10
2018-06-22T08:36:43.545Z,1.20
2018-06-22T08:39:11.981Z,1.20
2018-06-22T08:41:40.948Z,1.20
2018-06-22T08:44:09.467Z,0.90
2018-06-22T08:46:37.771Z,0.97
2018-06-22T08:49:06.109Z,1.10
2018-06-22T08:51:34.446Z,1.10
2018-06-22T08:54:02.814Z,1.10
2018-06-22T08:56:31.074Z,1.10
2018-06-22T08:58:59.529Z,1.10
2018-06-22T09:01:27.905Z,1.10
2018-06-22T09:03:56.286Z,1.20
2018-06-22T09:06:24.623Z,1.10
2018-06-22T09:08:52.933Z,1.30
2018-06-22T09:11:21.200Z,1.37
2018-06-22T09:13:49.699Z,1.27
2018-06-22T09:16:18.128Z,1.20
2018-06-22T09:18:46.422Z,1.10
2018-06-22T09:21:14.821Z,1.10
2018-06-22T09:23:43.188Z,1.20
2018-06-22T09:26:11.445Z,1.70
2018-06-22T09:28:39.796Z,1.40
2018-06-22T09:31:08.091Z,1.20
2018-06-22T09:33:36.388Z,1.30
2018-06-22T09:36:04.766Z,1.20
2018-06-22T09:38:33.064Z,1.70
2018-06-22T09:41:01.269Z,1.50
2018-06-22T09:43:29.581Z,1.60
2018-06-22T09:45:57.881Z,1.70
2018-06-22T09:48:26.274Z,1.40
2018-06-22T09:50:54.590Z,1.23
2018-06-22T09:53:23.758Z,1.43
2018-06-22T09:55:52.130Z,1.40
2018-06-22T09:58:20.428Z,2.00
2018-06-22T10:00:50.532Z,1.53
2018-06-22T10:03:20.011Z,1.60
2018-06-22T10:05:48.314Z,1.90
2018-06-22T10:08:16.791Z,1.83
2018-06-22T10:10:45.187Z,1.50
2018-06-22T10:13:13.831Z,1.47
2018-06-22T10:15:46.408Z,1.40
2018-06-22T10:18:14.687Z,1.70
2018-06-22T10:20:42.759Z,1.50
2018-06-22T10:23:11.036Z,1.30
2018-06-22T10:25:39.870Z,1.50
2018-06-22T10:28:08.344Z,1.27
2018-06-22T10:30:36.610Z,1.50
2018-06-22T10:33:05.211Z,1.47
2018-06-22T10:35:33.547Z,1.60
2018-06-22T10:38:01.949Z,2.12
2018-06-22T10:40:30.307Z,1.57
2018-06-22T10:42:58.631Z,1.40
2018-06-22T10:45:26.913Z,1.53
2018-06-22T10:47:55.268Z,1.47
2018-06-22T10:50:23.574Z,1.40
2018-06-22T10:52:51.982Z,1.50
2018-06-22T10:55:20.627Z,1.47
2018-06-22T10:57:49.128Z,1.57
2018-06-22T11:00:17.441Z,1.37
2018-06-22T11:02:45.449Z,1.50
2018-06-22T11:05:13.721Z,1.47
2018-06-22T11:07:41.954Z,1.20
2018-06-22T11:10:10.369Z,1.50
2018-06-22T11:12:38.731Z,1.33
2018-06-22T11:15:07.192Z,1.50
2018-06-22T11:17:35.516Z,1.40
2018-06-22T11:20:03.892Z,1.47
2018-06-22T11:22:32.276Z,1.37
2018-06-22T11:25:00.597Z,1.50
2018-06-22T11:27:29.145Z,1.30
2018-06-22T11:29:57.403Z,1.40
2018-06-22T11:32:25.763Z,1.50
2018-06-22T11:34:54.118Z,1.57
2018-06-22T11:37:22.429Z,1.60
2018-06-22T11:39:50.700Z,1.57
2018-06-22T11:42:19.191Z,1.40
2018-06-22T11:44:47.500Z,1.37
2018-06-22T11:47:15.875Z,1.60
2018-06-22T11:49:44.151Z,1.43
2018-06-22T11:52:12.411Z,1.83
2018-06-22T11:54:40.762Z,1.55
2018-06-22T11:57:09.056Z,1.63
2018-06-22T11:59:37.510Z,1.30
2018-06-22T12:02:05.969Z,1.50
2018-06-22T12:04:34.411Z,1.90
2018-06-22T12:07:02.629Z,1.60
2018-06-22T12:09:30.921Z,1.50
2018-06-22T12:12:00.327Z,1.70
2018-06-22T12:14:28.620Z,1.60
2018-06-22T12:16:56.880Z,1.70
2018-06-22T12:19:25.368Z,1.63
2018-06-22T12:21:53.634Z,1.60
2018-06-22T12:24:21.665Z,1.90
2018-06-22T12:26:50.039Z,2.20
2018-06-22T12:29:18.389Z,2.03
2018-06-22T12:31:46.726Z,1.50
2018-06-22T12:34:15.086Z,1.87
2018-06-22T12:36:43.391Z,1.60
2018-06-22T12:39:14.385Z,1.60
2018-06-22T12:41:43.783Z,1.67
2018-06-22T12:44:12.075Z,1.40
2018-06-22T12:46:40.417Z,2.03
2018-06-22T12:49:08.738Z,1.45
2018-06-22T12:51:37.161Z,1.63
2018-06-22T12:54:05.759Z,2.00
2018-06-22T12:56:34.015Z,1.50
2018-06-22T12:59:02.356Z,1.62
2018-06-22T13:01:30.742Z,1.73
2018-06-22T13:03:59.044Z,1.93
2018-06-22T13:06:27.420Z,1.63
2018-06-22T13:08:56.724Z,2.33
2018-06-22T13:11:25.028Z,1.63
2018-06-22T13:13:53.444Z,1.77
2018-06-22T13:16:21.804Z,1.67
2018-06-22T13:18:50.127Z,1.30
2018-06-22T13:21:18.418Z,1.62
2018-06-22T13:23:46.930Z,1.80
2018-06-22T13:26:15.245Z,1.77
2018-06-22T13:28:43.544Z,1.70
2018-06-22T13:31:11.963Z,1.70
2018-06-22T13:33:40.313Z,1.90
2018-06-22T13:36:08.703Z,2.00
2018-06-22T13:38:36.999Z,1.60
2018-06-22T13:41:05.275Z,1.53
2018-06-22T13:43:33.768Z,1.83
2018-06-22T13:46:03.307Z,1.93
2018-06-22T13:48:31.663Z,1.70
2018-06-22T13:51:00.147Z,1.70
2018-06-22T13:53:28.445Z,1.65
2018-06-22T13:55:56.683Z,1.60
2018-06-22T13:58:24.991Z,1.97
2018-06-22T14:00:53.319Z,1.90
2018-06-22T14:03:21.839Z,1.73
2018-06-22T14:05:55.539Z,1.43
2018-06-22T14:08:23.990Z,1.70
2018-06-22T14:10:52.255Z,1.70
2018-06-22T14:13:21.053Z,1.97
2018-06-22T14:15:49.331Z,1.50
2018-06-22T14:18:17.632Z,1.80
2018-06-22T14:20:45.948Z,1.70
2018-06-22T14:23:14.385Z,1.80
2018-06-22T14:25:42.743Z,1.85
2018-06-22T14:28:11.048Z,1.80
2018-06-22T14:30:39.362Z,1.90
2018-06-22T14:33:07.717Z,2.30
2018-06-22T14:35:36.720Z,2.20
2018-06-22T14:38:05.071Z,1.67
2018-06-22T14:40:33.431Z,1.87
2018-06-22T14:43:01.835Z,1.70
2018-06-22T14:45:30.210Z,1.60
2018-06-22T14:47:58.493Z,1.50
2018-06-22T14:50:26.803Z,1.73
2018-06-22T14:52:55.139Z,1.63
2018-06-22T14:55:28.853Z,1.80
2018-06-22T14:58:02.489Z,1.62
2018-06-22T15:00:36.213Z,1.55
2018-06-22T15:03:09.945Z,1.50
2018-06-22T15:05:43.670Z,1.70
2018-06-22T15:08:15.395Z,1.63
2018-06-22T15:10:43.668Z,1.67
2018-06-22T15:13:12.011Z,1.73
2018-06-22T15:15:40.313Z,1.70
2018-06-22T15:18:08.658Z,1.60
2018-06-22T15:20:37.024Z,1.70
2018-06-22T15:23:05.298Z,1.60
2018-06-22T15:25:33.619Z,2.13
2018-06-22T15:28:01.937Z,1.77
2018-06-22T15:30:30.220Z,1.53
2018-06-22T15:32:58.502Z,1.90
2018-06-22T15:35:32.196Z,2.00
2018-06-22T15:38:05.783Z,1.70
2018-06-22T15:40:39.520Z,1.57
2018-06-22T15:43:13.324Z,1.40
2018-06-22T15:45:47.193Z,1.70
2018-06-22T15:48:21.035Z,1.87
2018-06-22T15:50:54.588Z,1.43
2018-06-22T15:53:28.328Z,1.37
2018-06-22T15:56:02.038Z,1.40
2018-06-22T15:58:30.375Z,2.17
2018-06-22T16:00:58.698Z,1.83
2018-06-22T16:03:32.401Z,2.00
2018-06-22T16:06:00.815Z,1.60
2018-06-22T16:08:29.193Z,1.77
2018-06-22T16:10:57.535Z,1.37
2018-06-22T16:13:25.838Z,1.50
2018-06-22T16:15:59.611Z,2.07
2018-06-22T16:18:33.366Z,1.40
2018-06-22T16:21:07.076Z,1.33
2018-06-22T16:23:40.844Z,1.80
2018-06-22T16:26:17.975Z,1.40
2018-06-22T16:28:46.251Z,1.77
2018-06-22T16:31:14.690Z,1.47
2018-06-22T16:33:47.377Z,1.93
2018-06-22T16:36:16.669Z,1.80
2018-06-22T16:38:45.003Z,1.60
2018-06-22T16:41:13.332Z,1.57
2018-06-22T16:43:41.694Z,1.77
2018-06-22T16:46:10.031Z,1.90
2018-06-22T16:48:38.431Z,1.87
2018-06-22T16:51:06.840Z,1.77
2018-06-22T16:53:35.274Z,1.30
2018-06-22T16:56:03.596Z,1.40
2018-06-22T16:58:38.483Z,1.40
2018-06-22T17:01:08.486Z,1.50
2018-06-22T17:03:36.890Z,1.87
2018-06-22T17:06:05.734Z,1.73
2018-06-22T17:08:39.264Z,2.23
2018-06-22T17:11:12.904Z,1.72
2018-06-22T17:13:46.693Z,1.67
2018-06-22T17:16:20.414Z,1.60
2018-06-22T17:18:50.102Z,1.40
2018-06-22T17:21:18.593Z,1.60
2018-06-22T17:23:46.943Z,1.93
2018-06-22T17:26:15.306Z,1.60
2018-06-22T17:28:43.620Z,2.80
2018-06-22T17:31:11.989Z,1.40
2018-06-22T17:33:40.687Z,1.37
2018-06-22T17:36:09.594Z,1.60
2018-06-22T17:38:37.991Z,1.40
2018-06-22T17:41:07.913Z,2.00
2018-06-22T17:43:36.247Z,1.43
2018-06-22T17:46:04.913Z,1.90
2018-06-22T17:48:33.353Z,1.70
2018-06-22T17:51:01.710Z,1.70
2018-06-22T17:53:30.080Z,1.50
2018-06-22T17:55:58.406Z,1.73
2018-06-22T17:58:26.432Z,1.80
2018-06-22T18:01:00.227Z,1.77
2018-06-22T18:03:33.934Z,1.80
2018-06-22T18:06:07.687Z,1.63
2018-06-22T18:08:41.316Z,1.80
2018-06-22T18:11:14.910Z,1.93
2018-06-22T18:13:43.231Z,1.60
2018-06-22T18:16:11.566Z,1.97
2018-06-22T18:18:39.879Z,1.70
2018-06-22T18:21:08.199Z,2.00
2018-06-22T18:23:36.564Z,2.17
2018-06-22T18:26:05.203Z,1.80
2018-06-22T18:28:33.505Z,1.53
2018-06-22T18:31:01.808Z,1.90
2018-06-22T18:33:30.132Z,1.70
2018-06-22T18:35:58.457Z,1.73
2018-06-22T18:38:26.843Z,2.23
2018-06-22T18:40:55.119Z,1.63
2018-06-22T18:43:28.906Z,1.93
2018-06-22T18:45:57.355Z,1.70
2018-06-22T18:48:25.737Z,1.90
2018-06-22T18:50:54.048Z,1.90
2018-06-22T18:53:27.886Z,1.40
2018-06-22T18:56:01.548Z,1.93
2018-06-22T18:58:35.424Z,2.00
2018-06-22T19:01:09.276Z,1.80
2018-06-22T19:03:43.206Z,1.60
2018-06-22T19:06:11.527Z,1.70
2018-06-22T19:08:39.783Z,2.20
2018-06-22T19:11:08.085Z,1.83
2018-06-22T19:13:36.510Z,1.57
2018-06-22T19:16:05.056Z,1.83
2018-06-22T19:18:33.371Z,1.80
2018-06-22T19:21:01.775Z,2.00
2018-06-22T19:23:30.165Z,1.87
2018-06-22T19:25:58.528Z,1.90
2018-06-22T19:28:26.812Z,1.97
2018-06-22T19:30:55.163Z,1.47
2018-06-22T19:33:23.684Z,2.03
2018-06-22T19:35:51.970Z,2.10
2018-06-22T19:38:20.337Z,1.90
2018-06-22T19:40:48.688Z,2.20
2018-06-22T19:43:22.482Z,1.70
2018-06-22T19:46:54.042Z,2.00
2018-06-22T19:49:27.632Z,1.87
2018-06-22T19:52:01.279Z,2.00
2018-06-22T19:54:29.631Z,2.47
2018-06-22T19:56:58.019Z,1.70
2018-06-22T19:59:26.442Z,1.67
2018-06-22T20:01:54.952Z,2.23
2018-06-22T20:04:23.286Z,2.60
2018-06-22T20:06:51.556Z,2.03
2018-06-22T20:09:19.878Z,1.93
2018-06-22T20:11:48.238Z,2.00
2018-06-22T20:14:18.339Z,2.47
2018-06-22T20:16:46.683Z,2.30
2018-06-22T20:19:15.036Z,1.90
2018-06-22T20:21:43.358Z,1.80
2018-06-22T20:24:11.678Z,2.07
2018-06-22T20:26:39.979Z,2.10
2018-06-22T20:29:10.489Z,2.07
2018-06-22T20:31:41.147Z,2.00
2018-06-22T20:34:14.753Z,1.83
2018-06-22T20:36:48.420Z,1.95
2018-06-22T20:39:22.181Z,2.10
2018-06-22T20:41:55.933Z,2.00
2018-06-22T20:44:29.665Z,1.97
2018-06-22T20:47:03.470Z,2.10
2018-06-22T20:49:37.190Z,1.80
2018-06-22T20:52:05.738Z,1.93
2018-06-22T20:54:34.062Z,2.40
2018-06-22T20:57:02.411Z,2.60
2018-06-22T20:59:30.765Z,2.00
2018-06-22T21:01:59.063Z,2.00
2018-06-22T21:04:27.431Z,1.87
2018-06-22T21:06:55.803Z,2.30
2018-06-22T21:09:24.329Z,2.27
2018-06-22T21:11:52.663Z,2.10
2018-06-22T21:14:20.969Z,2.27
2018-06-22T21:29:05.368Z,2.10
2018-06-22T21:31:39.075Z,2.50
2018-06-22T21:34:12.885Z,2.63
2018-06-22T21:36:46.712Z,2.20
2018-06-22T21:39:15.135Z,2.52
2018-06-22T21:41:43.499Z,2.50
2018-06-22T21:44:11.817Z,2.30
2018-06-22T21:46:40.187Z,2.13
2018-06-22T21:49:08.492Z,2.00
2018-06-22T21:51:36.802Z,2.40
2018-06-22T21:54:05.237Z,2.57
2018-06-22T21:56:33.598Z,2.27
2018-06-22T21:59:01.957Z,2.43
2018-06-22T22:01:30.279Z,2.53
2018-06-22T22:03:58.607Z,2.30
2018-06-22T22:06:26.900Z,2.50
2018-06-22T22:08:55.245Z,2.13
2018-06-22T22:14:16.440Z,2.37
2018-06-22T22:16:44.726Z,2.40
2018-06-22T22:19:13.059Z,2.13
2018-06-22T22:21:41.407Z,2.10
2018-06-22T22:24:09.503Z,3.70
2018-06-22T22:26:37.862Z,2.97
2018-06-22T22:29:06.384Z,2.60
2018-06-22T22:31:34.848Z,3.62
2018-06-22T22:34:03.332Z,2.50
2018-06-22T22:36:31.822Z,2.63
2018-06-22T22:39:00.327Z,2.40
2018-06-22T22:41:28.799Z,2.20
2018-06-22T22:43:57.117Z,2.47
2018-06-22T22:46:25.401Z,2.60
2018-06-22T22:48:53.410Z,3.10
2018-06-22T22:51:21.724Z,2.30
2018-06-22T22:53:50.159Z,3.12
2018-06-22T22:56:18.483Z,2.43
2018-06-22T22:58:46.790Z,2.47
2018-06-22T23:01:15.095Z,3.00
2018-06-22T23:03:43.440Z,2.20
2018-06-22T23:06:11.497Z,2.50
2018-06-22T23:08:39.844Z,2.30
2018-06-22T23:11:08.165Z,2.53
2018-06-22T23:13:36.468Z,2.27
2018-06-22T23:16:04.791Z,2.37
2018-06-22T23:18:33.134Z,2.57
2018-06-22T23:21:01.473Z,2.70
2018-06-22T23:23:32.502Z,2.20
2018-06-22T23:26:01.578Z,2.60
2018-06-22T23:28:29.899Z,2.80
2018-06-22T23:30:59.001Z,2.60
2018-06-22T23:33:27.509Z,2.80
2018-06-22T23:35:55.764Z,2.50
2018-06-22T23:38:24.074Z,2.53
2018-06-22T23:40:52.562Z,1.90
2018-06-22T23:43:20.869Z,2.90
2018-06-22T23:45:49.139Z,2.63
2018-06-22T23:48:17.702Z,2.40
2018-06-22T23:50:45.973Z,2.40
2018-06-22T23:53:14.276Z,2.87
2018-06-22T23:55:42.616Z,2.57
2018-06-22T23:58:10.991Z,2.52
